sensor_id;sensor_type;location;lat;lon;timestamp;temperature;humidity
30983;DHT22;17660;52.578;13.288;2023-02-23T00:01:52;6.90;99.90
30983;DHT22;17660;52.578;13.288;2023-02-23T00:04:18;7.00;99.90
30983;DHT22;17660;52.578;13.288;2023-02-23T00:06:45;6.90;99.90
30983;DHT22;17660;52.578;13.288;2023-02-23T00:09:12;6.90;99.90
30983;DHT22;17660;52.578;13.288;2023-02-23T00:11:52;6.80;99.90
30983;DHT22;17660;52.578;13.288;2023-02-23T00:14:19;6.90;99.90
30983;DHT22;17660;52.578;13.288;2023-02-23T00:16:45;6.90;99.90
30983;DHT22;17660;52.578;13.288;2023-02-23T00:19:12;6.90;99.90
30983;DHT22;17660;52.578;13.288;2023-02-23T00:21:40;6.90;99.90
30983;DHT22;17660;52.578;13.288;2023-02-23T00:24:09;7.00;99.90
30983;DHT22;17660;52.578;13.288;2023-02-23T00:26:38;6.70;99.90
30983;DHT22;17660;52.578;13.288;2023-02-23T00:29:09;6.70;99.90
30983;DHT22;17660;52.578;13.288;2023-02-23T00:31:36;6.70;99.90
30983;DHT22;17660;52.578;13.288;2023-02-23T00:34:04;6.80;99.90
30983;DHT22;17660;52.578;13.288;2023-02-23T00:36:32;6.80;99.90
30983;DHT22;17660;52.578;13.288;2023-02-23T00:39:05;6.70;99.90
30983;DHT22;17660;52.578;13.288;2023-02-23T00:41:49;6.70;99.90
30983;DHT22;17660;52.578;13.288;2023-02-23T00:44:18;6.70;99.90
30983;DHT22;17660;52.578;13.288;2023-02-23T00:46:46;6.70;99.90
30983;DHT22;17660;52.578;13.288;2023-02-23T00:49:19;6.80;99.90
30983;DHT22;17660;52.578;13.288;2023-02-23T00:51:46;6.70;99.90
30983;DHT22;17660;52.578;13.288;2023-02-23T00:54:14;6.70;99.90
30983;DHT22;17660;52.578;13.288;2023-02-23T00:56:41;6.70;99.90
30983;DHT22;17660;52.578;13.288;2023-02-23T00:59:09;6.70;99.90
30983;DHT22;17660;52.578;13.288;2023-02-23T01:01:36;6.70;99.90
30983;DHT22;17660;52.578;13.288;2023-02-23T01:04:04;6.80;99.90
30983;DHT22;17660;52.578;13.288;2023-02-23T01:06:31;6.70;99.90
30983;DHT22;17660;52.578;13.288;2023-02-23T01:08:59;6.70;99.90
30983;DHT22;17660;52.578;13.288;2023-02-23T01:11:30;6.60;99.90
30983;DHT22;17660;52.578;13.288;2023-02-23T01:13:58;6.70;99.90
30983;DHT22;17660;52.578;13.288;2023-02-23T01:16:29;6.70;99.90
30983;DHT22;17660;52.578;13.288;2023-02-23T01:18:57;6.60;99.90
30983;DHT22;17660;52.578;13.288;2023-02-23T01:21:28;6.60;99.90
30983;DHT22;17660;52.578;13.288;2023-02-23T01:23:55;6.60;99.90
30983;DHT22;17660;52.578;13.288;2023-02-23T01:26:28;6.50;99.90
30983;DHT22;17660;52.578;13.288;2023-02-23T01:28:57;6.50;99.90
30983;DHT22;17660;52.578;13.288;2023-02-23T01:31:26;6.40;99.90
30983;DHT22;17660;52.578;13.288;2023-02-23T01:33:59;6.40;99.90
30983;DHT22;17660;52.578;13.288;2023-02-23T01:36:27;6.40;99.90
30983;DHT22;17660;52.578;13.288;2023-02-23T01:38:55;6.50;99.90
30983;DHT22;17660;52.578;13.288;2023-02-23T01:41:23;6.50;99.90
30983;DHT22;17660;52.578;13.288;2023-02-23T01:43:58;6.50;99.90
30983;DHT22;17660;52.578;13.288;2023-02-23T01:46:26;6.50;99.90
30983;DHT22;17660;52.578;13.288;2023-02-23T01:48:54;6.40;99.90
30983;DHT22;17660;52.578;13.288;2023-02-23T01:51:28;6.50;99.90
30983;DHT22;17660;52.578;13.288;2023-02-23T01:54:11;6.40;99.90
30983;DHT22;17660;52.578;13.288;2023-02-23T01:56:44;6.30;99.90
30983;DHT22;17660;52.578;13.288;2023-02-23T01:59:13;6.20;99.90
30983;DHT22;17660;52.578;13.288;2023-02-23T02:01:41;6.30;99.90
30983;DHT22;17660;52.578;13.288;2023-02-23T02:04:11;6.30;99.90
30983;DHT22;17660;52.578;13.288;2023-02-23T02:06:44;6.40;99.90
30983;DHT22;17660;52.578;13.288;2023-02-23T02:09:14;6.30;99.90
30983;DHT22;17660;52.578;13.288;2023-02-23T02:11:45;6.30;99.90
30983;DHT22;17660;52.578;13.288;2023-02-23T02:14:23;6.20;99.90
30983;DHT22;17660;52.578;13.288;2023-02-23T02:47:24;6.00;99.90
30983;DHT22;17660;52.578;13.288;2023-02-23T02:50:22;6.00;99.90
30983;DHT22;17660;52.578;13.288;2023-02-23T02:52:56;6.10;99.90
30983;DHT22;17660;52.578;13.288;2023-02-23T02:55:29;6.10;99.90
30983;DHT22;17660;52.578;13.288;2023-02-23T02:58:01;6.10;99.90
30983;DHT22;17660;52.578;13.288;2023-02-23T03:00:40;6.10;99.90
30983;DHT22;17660;52.578;13.288;2023-02-23T03:03:28;6.10;99.90
30983;DHT22;17660;52.578;13.288;2023-02-23T03:06:13;6.10;99.90
30983;DHT22;17660;52.578;13.288;2023-02-23T03:19:30;6.00;99.90
30983;DHT22;17660;52.578;13.288;2023-02-23T03:21:50;5.90;99.90
30983;DHT22;17660;52.578;13.288;2023-02-23T03:24:40;5.90;99.90
30983;DHT22;17660;52.578;13.288;2023-02-23T03:33:40;5.90;99.90
30983;DHT22;17660;52.578;13.288;2023-02-23T03:36:33;6.00;99.90
30983;DHT22;17660;52.578;13.288;2023-02-23T03:39:32;5.90;99.90
30983;DHT22;17660;52.578;13.288;2023-02-23T03:42:20;5.90;99.90
30983;DHT22;17660;52.578;13.288;2023-02-23T03:45:15;5.90;99.90
30983;DHT22;17660;52.578;13.288;2023-02-23T03:48:04;5.90;99.90
30983;DHT22;17660;52.578;13.288;2023-02-23T03:50:57;5.90;99.90
30983;DHT22;17660;52.578;13.288;2023-02-23T03:53:48;5.80;99.90
30983;DHT22;17660;52.578;13.288;2023-02-23T03:56:36;5.80;99.90
30983;DHT22;17660;52.578;13.288;2023-02-23T03:59:27;5.80;99.90
30983;DHT22;17660;52.578;13.288;2023-02-23T04:02:13;5.70;99.90
30983;DHT22;17660;52.578;13.288;2023-02-23T04:05:03;5.70;99.90
30983;DHT22;17660;52.578;13.288;2023-02-23T04:07:51;5.70;99.90
30983;DHT22;17660;52.578;13.288;2023-02-23T04:10:45;5.60;99.90
30983;DHT22;17660;52.578;13.288;2023-02-23T04:13:36;5.70;99.90
30983;DHT22;17660;52.578;13.288;2023-02-23T04:16:06;5.70;99.90
30983;DHT22;17660;52.578;13.288;2023-02-23T04:18:38;5.70;99.90
30983;DHT22;17660;52.578;13.288;2023-02-23T04:21:06;5.70;99.90
30983;DHT22;17660;52.578;13.288;2023-02-23T04:23:33;5.80;99.90
30983;DHT22;17660;52.578;13.288;2023-02-23T04:26:00;5.60;99.90
30983;DHT22;17660;52.578;13.288;2023-02-23T04:28:28;5.70;99.90
30983;DHT22;17660;52.578;13.288;2023-02-23T04:30:54;5.60;99.90
30983;DHT22;17660;52.578;13.288;2023-02-23T04:33:22;5.60;99.90
30983;DHT22;17660;52.578;13.288;2023-02-23T04:35:54;5.60;99.90
30983;DHT22;17660;52.578;13.288;2023-02-23T04:38:21;5.60;99.90
30983;DHT22;17660;52.578;13.288;2023-02-23T04:40:48;5.60;99.90
30983;DHT22;17660;52.578;13.288;2023-02-23T04:43:14;5.60;99.90
30983;DHT22;17660;52.578;13.288;2023-02-23T04:45:41;5.60;99.90
30983;DHT22;17660;52.578;13.288;2023-02-23T04:48:09;5.60;99.90
30983;DHT22;17660;52.578;13.288;2023-02-23T04:50:36;5.60;99.90
30983;DHT22;17660;52.578;13.288;2023-02-23T04:53:03;5.60;99.90
30983;DHT22;17660;52.578;13.288;2023-02-23T04:55:29;5.50;99.90
30983;DHT22;17660;52.578;13.288;2023-02-23T04:57:58;5.50;99.90
30983;DHT22;17660;52.578;13.288;2023-02-23T05:00:26;5.50;99.90
30983;DHT22;17660;52.578;13.288;2023-02-23T05:02:53;5.50;99.90
30983;DHT22;17660;52.578;13.288;2023-02-23T05:05:19;5.50;99.90
30983;DHT22;17660;52.578;13.288;2023-02-23T05:07:47;5.50;99.90
30983;DHT22;17660;52.578;13.288;2023-02-23T05:10:13;5.50;99.90
30983;DHT22;17660;52.578;13.288;2023-02-23T05:12:40;5.50;99.90
30983;DHT22;17660;52.578;13.288;2023-02-23T05:15:07;5.40;99.90
30983;DHT22;17660;52.578;13.288;2023-02-23T05:17:38;5.40;99.90
30983;DHT22;17660;52.578;13.288;2023-02-23T05:20:11;5.40;99.90
30983;DHT22;17660;52.578;13.288;2023-02-23T05:22:38;5.40;99.90
30983;DHT22;17660;52.578;13.288;2023-02-23T05:25:06;5.40;99.90
30983;DHT22;17660;52.578;13.288;2023-02-23T05:27:34;5.30;99.90
30983;DHT22;17660;52.578;13.288;2023-02-23T05:30:03;5.40;99.90
30983;DHT22;17660;52.578;13.288;2023-02-23T05:32:29;5.30;99.90
30983;DHT22;17660;52.578;13.288;2023-02-23T05:34:56;5.40;99.90
30983;DHT22;17660;52.578;13.288;2023-02-23T05:37:23;5.30;99.90
30983;DHT22;17660;52.578;13.288;2023-02-23T05:39:50;5.30;99.90
30983;DHT22;17660;52.578;13.288;2023-02-23T05:42:16;5.30;99.90
30983;DHT22;17660;52.578;13.288;2023-02-23T05:44:43;5.30;99.90
30983;DHT22;17660;52.578;13.288;2023-02-23T05:47:10;5.20;99.90
30983;DHT22;17660;52.578;13.288;2023-02-23T05:49:37;5.20;99.90
30983;DHT22;17660;52.578;13.288;2023-02-23T05:52:04;5.20;99.90
30983;DHT22;17660;52.578;13.288;2023-02-23T05:54:31;5.20;99.90
30983;DHT22;17660;52.578;13.288;2023-02-23T05:56:58;5.20;99.90
30983;DHT22;17660;52.578;13.288;2023-02-23T05:59:27;5.30;99.90
30983;DHT22;17660;52.578;13.288;2023-02-23T06:01:54;5.20;99.90
30983;DHT22;17660;52.578;13.288;2023-02-23T06:04:21;5.20;99.90
30983;DHT22;17660;52.578;13.288;2023-02-23T06:06:49;5.20;99.90
30983;DHT22;17660;52.578;13.288;2023-02-23T06:09:15;5.20;99.90
30983;DHT22;17660;52.578;13.288;2023-02-23T06:11:42;5.10;99.90
30983;DHT22;17660;52.578;13.288;2023-02-23T06:14:10;5.10;99.90
30983;DHT22;17660;52.578;13.288;2023-02-23T06:16:36;5.10;99.90
30983;DHT22;17660;52.578;13.288;2023-02-23T06:19:04;5.10;99.90
30983;DHT22;17660;52.578;13.288;2023-02-23T06:21:31;5.10;99.90
30983;DHT22;17660;52.578;13.288;2023-02-23T06:23:57;5.10;99.90
30983;DHT22;17660;52.578;13.288;2023-02-23T06:26:26;5.10;99.90
30983;DHT22;17660;52.578;13.288;2023-02-23T06:28:53;5.10;99.90
30983;DHT22;17660;52.578;13.288;2023-02-23T06:31:21;5.10;99.90
30983;DHT22;17660;52.578;13.288;2023-02-23T06:33:49;5.10;99.90
30983;DHT22;17660;52.578;13.288;2023-02-23T06:36:16;5.10;99.90
30983;DHT22;17660;52.578;13.288;2023-02-23T06:38:43;5.20;99.90
30983;DHT22;17660;52.578;13.288;2023-02-23T06:41:11;5.10;99.90
30983;DHT22;17660;52.578;13.288;2023-02-23T06:43:38;5.20;99.90
30983;DHT22;17660;52.578;13.288;2023-02-23T06:46:05;5.20;99.90
30983;DHT22;17660;52.578;13.288;2023-02-23T06:48:32;5.30;99.90
30983;DHT22;17660;52.578;13.288;2023-02-23T06:50:59;5.30;99.90
30983;DHT22;17660;52.578;13.288;2023-02-23T06:53:25;5.40;99.90
30983;DHT22;17660;52.578;13.288;2023-02-23T06:55:52;5.40;99.90
30983;DHT22;17660;52.578;13.288;2023-02-23T06:58:19;5.50;99.90
30983;DHT22;17660;52.578;13.288;2023-02-23T07:00:46;5.60;99.90
30983;DHT22;17660;52.578;13.288;2023-02-23T07:03:13;5.60;99.90
30983;DHT22;17660;52.578;13.288;2023-02-23T07:05:39;5.70;99.90
30983;DHT22;17660;52.578;13.288;2023-02-23T07:08:06;5.80;99.90
30983;DHT22;17660;52.578;13.288;2023-02-23T07:10:33;5.80;99.90
30983;DHT22;17660;52.578;13.288;2023-02-23T07:13:00;5.90;99.90
30983;DHT22;17660;52.578;13.288;2023-02-23T07:15:27;5.90;99.90
30983;DHT22;17660;52.578;13.288;2023-02-23T07:17:54;6.00;99.90
30983;DHT22;17660;52.578;13.288;2023-02-23T07:20:22;6.00;99.90
30983;DHT22;17660;52.578;13.288;2023-02-23T07:22:49;6.00;99.90
30983;DHT22;17660;52.578;13.288;2023-02-23T07:25:16;6.00;99.90
30983;DHT22;17660;52.578;13.288;2023-02-23T07:27:43;6.10;99.90
30983;DHT22;17660;52.578;13.288;2023-02-23T07:30:11;6.20;99.90
30983;DHT22;17660;52.578;13.288;2023-02-23T07:32:38;6.20;99.90
30983;DHT22;17660;52.578;13.288;2023-02-23T07:35:05;6.30;99.90
30983;DHT22;17660;52.578;13.288;2023-02-23T07:37:32;6.30;99.90
30983;DHT22;17660;52.578;13.288;2023-02-23T07:39:59;6.40;99.90
30983;DHT22;17660;52.578;13.288;2023-02-23T07:42:27;6.50;99.90
30983;DHT22;17660;52.578;13.288;2023-02-23T07:44:53;6.50;99.90
30983;DHT22;17660;52.578;13.288;2023-02-23T07:47:21;6.60;99.90
30983;DHT22;17660;52.578;13.288;2023-02-23T07:49:59;6.60;99.90
30983;DHT22;17660;52.578;13.288;2023-02-23T07:52:27;6.60;99.90
30983;DHT22;17660;52.578;13.288;2023-02-23T07:54:54;6.60;99.90
30983;DHT22;17660;52.578;13.288;2023-02-23T07:57:21;6.60;99.90
30983;DHT22;17660;52.578;13.288;2023-02-23T07:59:50;6.50;99.90
30983;DHT22;17660;52.578;13.288;2023-02-23T08:02:17;6.50;99.90
30983;DHT22;17660;52.578;13.288;2023-02-23T08:04:44;6.60;99.90
30983;DHT22;17660;52.578;13.288;2023-02-23T08:07:11;6.60;99.90
30983;DHT22;17660;52.578;13.288;2023-02-23T08:09:38;6.70;99.90
30983;DHT22;17660;52.578;13.288;2023-02-23T08:12:05;6.80;99.90
30983;DHT22;17660;52.578;13.288;2023-02-23T08:14:32;6.70;99.90
30983;DHT22;17660;52.578;13.288;2023-02-23T08:16:59;6.90;99.90
30983;DHT22;17660;52.578;13.288;2023-02-23T08:19:27;7.00;99.90
30983;DHT22;17660;52.578;13.288;2023-02-23T08:21:55;7.10;99.90
30983;DHT22;17660;52.578;13.288;2023-02-23T08:24:22;7.20;99.90
30983;DHT22;17660;52.578;13.288;2023-02-23T08:26:50;7.20;99.90
30983;DHT22;17660;52.578;13.288;2023-02-23T08:29:17;7.30;99.90
30983;DHT22;17660;52.578;13.288;2023-02-23T08:31:44;7.30;99.90
30983;DHT22;17660;52.578;13.288;2023-02-23T08:34:11;7.40;99.90
30983;DHT22;17660;52.578;13.288;2023-02-23T08:36:38;7.60;99.90
30983;DHT22;17660;52.578;13.288;2023-02-23T08:39:06;7.70;99.90
30983;DHT22;17660;52.578;13.288;2023-02-23T08:41:35;7.90;99.90
30983;DHT22;17660;52.578;13.288;2023-02-23T08:44:01;7.80;99.90
30983;DHT22;17660;52.578;13.288;2023-02-23T08:46:28;7.90;99.90
30983;DHT22;17660;52.578;13.288;2023-02-23T08:48:55;8.00;99.90
30983;DHT22;17660;52.578;13.288;2023-02-23T08:51:24;8.00;99.90
30983;DHT22;17660;52.578;13.288;2023-02-23T08:53:51;7.90;99.90
30983;DHT22;17660;52.578;13.288;2023-02-23T08:56:17;7.80;99.90
30983;DHT22;17660;52.578;13.288;2023-02-23T08:58:44;7.70;99.90
30983;DHT22;17660;52.578;13.288;2023-02-23T09:01:19;7.50;99.90
30983;DHT22;17660;52.578;13.288;2023-02-23T09:03:47;7.70;99.90
30983;DHT22;17660;52.578;13.288;2023-02-23T09:06:18;7.70;99.90
30983;DHT22;17660;52.578;13.288;2023-02-23T09:08:45;7.90;99.90
30983;DHT22;17660;52.578;13.288;2023-02-23T09:11:12;8.00;99.90
30983;DHT22;17660;52.578;13.288;2023-02-23T09:13:38;8.00;99.90
30983;DHT22;17660;52.578;13.288;2023-02-23T09:16:06;7.90;99.90
30983;DHT22;17660;52.578;13.288;2023-02-23T09:18:33;7.80;99.90
30983;DHT22;17660;52.578;13.288;2023-02-23T09:21:05;7.90;99.90
30983;DHT22;17660;52.578;13.288;2023-02-23T09:23:33;8.10;99.90
30983;DHT22;17660;52.578;13.288;2023-02-23T09:26:04;8.20;99.90
30983;DHT22;17660;52.578;13.288;2023-02-23T09:28:32;8.20;99.90
30983;DHT22;17660;52.578;13.288;2023-02-23T09:31:05;8.40;99.90
30983;DHT22;17660;52.578;13.288;2023-02-23T09:33:32;8.40;99.90
30983;DHT22;17660;52.578;13.288;2023-02-23T09:36:00;8.40;99.90
30983;DHT22;17660;52.578;13.288;2023-02-23T09:38:29;8.50;99.90
30983;DHT22;17660;52.578;13.288;2023-02-23T09:40:58;8.60;99.90
30983;DHT22;17660;52.578;13.288;2023-02-23T09:43:39;8.90;99.90
30983;DHT22;17660;52.578;13.288;2023-02-23T09:48:34;8.80;99.90
30983;DHT22;17660;52.578;13.288;2023-02-23T09:51:05;9.00;99.90
30983;DHT22;17660;52.578;13.288;2023-02-23T09:53:44;9.00;99.90
30983;DHT22;17660;52.578;13.288;2023-02-23T09:56:23;9.10;99.90
30983;DHT22;17660;52.578;13.288;2023-02-23T09:58:52;9.30;99.90
30983;DHT22;17660;52.578;13.288;2023-02-23T10:04:16;9.80;99.90
30983;DHT22;17660;52.578;13.288;2023-02-23T10:06:58;9.90;99.90
30983;DHT22;17660;52.578;13.288;2023-02-23T10:09:43;9.90;99.90
30983;DHT22;17660;52.578;13.288;2023-02-23T10:15:02;10.00;99.90
30983;DHT22;17660;52.578;13.288;2023-02-23T10:20:37;10.60;99.90
30983;DHT22;17660;52.578;13.288;2023-02-23T10:23:14;10.70;99.90
30983;DHT22;17660;52.578;13.288;2023-02-23T10:25:46;11.00;99.90
30983;DHT22;17660;52.578;13.288;2023-02-23T10:28:19;11.60;99.40
30983;DHT22;17660;52.578;13.288;2023-02-23T10:30:51;12.20;98.60
30983;DHT22;17660;52.578;13.288;2023-02-23T10:33:33;12.90;97.70
30983;DHT22;17660;52.578;13.288;2023-02-23T10:36:14;13.30;96.70
30983;DHT22;17660;52.578;13.288;2023-02-23T10:38:42;13.60;96.50
30983;DHT22;17660;52.578;13.288;2023-02-23T10:41:09;14.00;96.20
30983;DHT22;17660;52.578;13.288;2023-02-23T10:43:40;14.40;95.60
30983;DHT22;17660;52.578;13.288;2023-02-23T10:46:11;14.60;95.60
30983;DHT22;17660;52.578;13.288;2023-02-23T10:48:42;14.90;95.60
30983;DHT22;17660;52.578;13.288;2023-02-23T10:51:17;15.70;94.00
30983;DHT22;17660;52.578;13.288;2023-02-23T10:53:45;16.00;93.90
30983;DHT22;17660;52.578;13.288;2023-02-23T10:56:17;16.50;93.50
30983;DHT22;17660;52.578;13.288;2023-02-23T10:58:54;16.80;92.20
30983;DHT22;17660;52.578;13.288;2023-02-23T11:04:25;16.10;92.70
30983;DHT22;17660;52.578;13.288;2023-02-23T11:07:08;15.80;92.90
30983;DHT22;17660;52.578;13.288;2023-02-23T11:09:35;15.70;92.90
30983;DHT22;17660;52.578;13.288;2023-02-23T11:12:18;15.90;93.00
30983;DHT22;17660;52.578;13.288;2023-02-23T11:14:55;16.50;92.70
30983;DHT22;17660;52.578;13.288;2023-02-23T11:19:58;16.80;91.40
30983;DHT22;17660;52.578;13.288;2023-02-23T11:22:25;16.50;91.60
30983;DHT22;17660;52.578;13.288;2023-02-23T11:24:56;16.50;92.00
30983;DHT22;17660;52.578;13.288;2023-02-23T11:27:25;16.70;91.80
30983;DHT22;17660;52.578;13.288;2023-02-23T11:29:55;16.50;92.30
30983;DHT22;17660;52.578;13.288;2023-02-23T11:32:29;16.50;91.80
30983;DHT22;17660;52.578;13.288;2023-02-23T11:35:27;16.10;92.20
30983;DHT22;17660;52.578;13.288;2023-02-23T11:37:55;16.30;92.30
30983;DHT22;17660;52.578;13.288;2023-02-23T11:42:52;16.50;92.10
30983;DHT22;17660;52.578;13.288;2023-02-23T11:45:21;16.30;92.40
30983;DHT22;17660;52.578;13.288;2023-02-23T11:47:53;16.30;92.40
30983;DHT22;17660;52.578;13.288;2023-02-23T11:50:29;16.40;92.10
30983;DHT22;17660;52.578;13.288;2023-02-23T11:53:14;16.70;91.70
30983;DHT22;17660;52.578;13.288;2023-02-23T11:55:49;16.60;91.90
30983;DHT22;17660;52.578;13.288;2023-02-23T12:00:57;16.90;92.00
30983;DHT22;17660;52.578;13.288;2023-02-23T12:03:25;16.40;92.20
30983;DHT22;17660;52.578;13.288;2023-02-23T12:05:54;16.00;93.10
30983;DHT22;17660;52.578;13.288;2023-02-23T12:11:02;16.30;92.80
30983;DHT22;17660;52.578;13.288;2023-02-23T12:13:40;16.20;92.80
30983;DHT22;17660;52.578;13.288;2023-02-23T12:16:25;16.30;92.80
30983;DHT22;17660;52.578;13.288;2023-02-23T12:19:10;16.40;92.80
30983;DHT22;17660;52.578;13.288;2023-02-23T12:21:47;16.30;93.00
30983;DHT22;17660;52.578;13.288;2023-02-23T12:27:23;15.90;93.30
30983;DHT22;17660;52.578;13.288;2023-02-23T12:33:12;14.80;94.80
30983;DHT22;17660;52.578;13.288;2023-02-23T12:41:19;14.10;96.70
30983;DHT22;17660;52.578;13.288;2023-02-23T12:43:54;14.10;96.80
30983;DHT22;17660;52.578;13.288;2023-02-23T12:46:30;14.00;96.50
30983;DHT22;17660;52.578;13.288;2023-02-23T12:49:10;14.00;96.90
30983;DHT22;17660;52.578;13.288;2023-02-23T12:51:46;14.30;97.00
30983;DHT22;17660;52.578;13.288;2023-02-23T12:54:17;14.10;97.00
30983;DHT22;17660;52.578;13.288;2023-02-23T13:13:19;14.20;97.50
30983;DHT22;17660;52.578;13.288;2023-02-23T13:19:27;14.10;97.10
30983;DHT22;17660;52.578;13.288;2023-02-23T13:24:17;14.60;96.90
30983;DHT22;17660;52.578;13.288;2023-02-23T13:29:36;14.60;96.50
30983;DHT22;17660;52.578;13.288;2023-02-23T13:32:15;14.60;96.60
30983;DHT22;17660;52.578;13.288;2023-02-23T13:34:58;14.60;96.80
30983;DHT22;17660;52.578;13.288;2023-02-23T13:48:38;12.70;99.30
30983;DHT22;17660;52.578;13.288;2023-02-23T13:51:40;12.60;99.90
30983;DHT22;17660;52.578;13.288;2023-02-23T13:56:48;12.70;99.90
30983;DHT22;17660;52.578;13.288;2023-02-23T13:59:27;12.70;99.90
30983;DHT22;17660;52.578;13.288;2023-02-23T14:01:55;12.60;99.90
30983;DHT22;17660;52.578;13.288;2023-02-23T14:04:25;12.60;99.90
30983;DHT22;17660;52.578;13.288;2023-02-23T14:06:54;12.60;99.90
30983;DHT22;17660;52.578;13.288;2023-02-23T14:09:32;12.50;99.90
30983;DHT22;17660;52.578;13.288;2023-02-23T14:19:43;12.30;99.90
30983;DHT22;17660;52.578;13.288;2023-02-23T14:22:16;12.30;99.90
30983;DHT22;17660;52.578;13.288;2023-02-23T14:27:57;12.20;99.90
30983;DHT22;17660;52.578;13.288;2023-02-23T14:30:28;12.20;99.90
30983;DHT22;17660;52.578;13.288;2023-02-23T14:41:34;11.90;99.90
30983;DHT22;17660;52.578;13.288;2023-02-23T14:44:27;11.90;99.90
30983;DHT22;17660;52.578;13.288;2023-02-23T14:47:11;11.70;99.90
30983;DHT22;17660;52.578;13.288;2023-02-23T14:49:43;11.60;99.90
30983;DHT22;17660;52.578;13.288;2023-02-23T14:52:23;11.50;99.90
30983;DHT22;17660;52.578;13.288;2023-02-23T14:54:52;11.30;99.90
30983;DHT22;17660;52.578;13.288;2023-02-23T14:57:35;11.30;99.90
30983;DHT22;17660;52.578;13.288;2023-02-23T15:00:15;11.20;99.90
30983;DHT22;17660;52.578;13.288;2023-02-23T15:02:59;11.20;99.90
30983;DHT22;17660;52.578;13.288;2023-02-23T15:05:33;11.00;99.90
30983;DHT22;17660;52.578;13.288;2023-02-23T15:08:05;11.00;99.90
30983;DHT22;17660;52.578;13.288;2023-02-23T15:10:37;11.00;99.90
30983;DHT22;17660;52.578;13.288;2023-02-23T15:13:19;11.10;99.90
30983;DHT22;17660;52.578;13.288;2023-02-23T15:15:56;11.20;99.90
30983;DHT22;17660;52.578;13.288;2023-02-23T15:18:32;11.20;99.90
30983;DHT22;17660;52.578;13.288;2023-02-23T15:21:17;11.30;99.90
30983;DHT22;17660;52.578;13.288;2023-02-23T15:23:48;11.20;99.90
30983;DHT22;17660;52.578;13.288;2023-02-23T15:26:33;11.10;99.90
30983;DHT22;17660;52.578;13.288;2023-02-23T15:29:13;11.10;99.90
30983;DHT22;17660;52.578;13.288;2023-02-23T15:31:48;11.10;99.90
30983;DHT22;17660;52.578;13.288;2023-02-23T15:34:23;11.10;99.90
30983;DHT22;17660;52.578;13.288;2023-02-23T15:39:45;10.90;99.90
30983;DHT22;17660;52.578;13.288;2023-02-23T15:42:19;10.90;99.90
30983;DHT22;17660;52.578;13.288;2023-02-23T15:44:57;11.00;99.90
30983;DHT22;17660;52.578;13.288;2023-02-23T15:47:31;10.80;99.90
30983;DHT22;17660;52.578;13.288;2023-02-23T15:50:07;10.70;99.90
30983;DHT22;17660;52.578;13.288;2023-02-23T15:52:48;10.60;99.90
30983;DHT22;17660;52.578;13.288;2023-02-23T15:55:22;10.60;99.90
30983;DHT22;17660;52.578;13.288;2023-02-23T15:57:56;10.60;99.90
30983;DHT22;17660;52.578;13.288;2023-02-23T16:00:32;10.70;99.90
30983;DHT22;17660;52.578;13.288;2023-02-23T16:03:04;10.70;99.90
30983;DHT22;17660;52.578;13.288;2023-02-23T16:05:33;10.70;99.90
30983;DHT22;17660;52.578;13.288;2023-02-23T16:08:22;10.60;99.90
30983;DHT22;17660;52.578;13.288;2023-02-23T16:11:11;10.50;99.90
30983;DHT22;17660;52.578;13.288;2023-02-23T16:13:43;10.50;99.90
30983;DHT22;17660;52.578;13.288;2023-02-23T16:16:13;10.40;99.90
30983;DHT22;17660;52.578;13.288;2023-02-23T16:18:51;10.40;99.90
30983;DHT22;17660;52.578;13.288;2023-02-23T16:21:21;10.40;99.90
30983;DHT22;17660;52.578;13.288;2023-02-23T16:23:52;10.30;99.90
30983;DHT22;17660;52.578;13.288;2023-02-23T16:26:35;10.30;99.90
30983;DHT22;17660;52.578;13.288;2023-02-23T16:29:09;10.30;99.90
30983;DHT22;17660;52.578;13.288;2023-02-23T16:31:47;10.20;99.90
30983;DHT22;17660;52.578;13.288;2023-02-23T16:34:32;10.10;99.90
30983;DHT22;17660;52.578;13.288;2023-02-23T16:37:03;10.20;99.90
30983;DHT22;17660;52.578;13.288;2023-02-23T16:39:41;10.20;99.90
30983;DHT22;17660;52.578;13.288;2023-02-23T16:42:21;10.20;99.90
30983;DHT22;17660;52.578;13.288;2023-02-23T16:44:48;10.20;99.90
30983;DHT22;17660;52.578;13.288;2023-02-23T16:47:40;10.30;99.90
30983;DHT22;17660;52.578;13.288;2023-02-23T16:50:16;10.30;99.90
30983;DHT22;17660;52.578;13.288;2023-02-23T16:52:47;10.30;99.90
30983;DHT22;17660;52.578;13.288;2023-02-23T16:55:22;10.30;99.90
30983;DHT22;17660;52.578;13.288;2023-02-23T16:58:18;10.40;99.90
30983;DHT22;17660;52.578;13.288;2023-02-23T17:00:46;10.40;99.90
30983;DHT22;17660;52.578;13.288;2023-02-23T17:05:46;10.30;99.90
30983;DHT22;17660;52.578;13.288;2023-02-23T17:08:13;10.20;99.90
30983;DHT22;17660;52.578;13.288;2023-02-23T17:10:50;10.20;99.90
30983;DHT22;17660;52.578;13.288;2023-02-23T17:13:19;10.30;99.90
30983;DHT22;17660;52.578;13.288;2023-02-23T17:15:48;10.30;99.90
30983;DHT22;17660;52.578;13.288;2023-02-23T17:18:25;10.30;99.90
30983;DHT22;17660;52.578;13.288;2023-02-23T17:20:53;10.20;99.90
30983;DHT22;17660;52.578;13.288;2023-02-23T17:23:22;10.20;99.90
30983;DHT22;17660;52.578;13.288;2023-02-23T17:25:53;10.20;99.90
30983;DHT22;17660;52.578;13.288;2023-02-23T17:28:21;10.20;99.90
30983;DHT22;17660;52.578;13.288;2023-02-23T17:30:48;10.20;99.90
30983;DHT22;17660;52.578;13.288;2023-02-23T17:33:15;10.20;99.90
30983;DHT22;17660;52.578;13.288;2023-02-23T17:35:42;10.20;99.90
30983;DHT22;17660;52.578;13.288;2023-02-23T17:38:09;10.20;99.90
30983;DHT22;17660;52.578;13.288;2023-02-23T17:40:36;10.10;99.90
30983;DHT22;17660;52.578;13.288;2023-02-23T17:43:05;10.10;99.90
30983;DHT22;17660;52.578;13.288;2023-02-23T17:45:35;10.10;99.90
30983;DHT22;17660;52.578;13.288;2023-02-23T17:48:02;10.10;99.90
30983;DHT22;17660;52.578;13.288;2023-02-23T17:50:28;10.10;99.90
30983;DHT22;17660;52.578;13.288;2023-02-23T17:52:56;10.10;99.90
30983;DHT22;17660;52.578;13.288;2023-02-23T17:55:23;10.00;99.90
30983;DHT22;17660;52.578;13.288;2023-02-23T17:57:50;10.00;99.90
30983;DHT22;17660;52.578;13.288;2023-02-23T18:00:18;10.10;99.90
30983;DHT22;17660;52.578;13.288;2023-02-23T18:02:46;10.00;99.90
30983;DHT22;17660;52.578;13.288;2023-02-23T18:05:13;10.10;99.90
30983;DHT22;17660;52.578;13.288;2023-02-23T18:07:41;10.10;99.90
30983;DHT22;17660;52.578;13.288;2023-02-23T18:10:09;10.10;99.90
30983;DHT22;17660;52.578;13.288;2023-02-23T18:12:36;10.10;99.90
30983;DHT22;17660;52.578;13.288;2023-02-23T18:15:03;10.10;99.90
30983;DHT22;17660;52.578;13.288;2023-02-23T18:17:30;10.10;99.90
30983;DHT22;17660;52.578;13.288;2023-02-23T18:19:59;10.00;99.90
30983;DHT22;17660;52.578;13.288;2023-02-23T18:22:26;10.10;99.90